createdAt,value
2022-10-17T00:01:18.681Z,13.20
2022-10-17T00:03:46.569Z,13.20
2022-10-17T00:06:15.056Z,13.20
2022-10-17T00:08:45.068Z,13.20
2022-10-17T00:11:14.755Z,13.30
2022-10-17T00:13:42.521Z,13.30
2022-10-17T00:16:10.406Z,13.30
2022-10-17T00:18:40.332Z,13.30
2022-10-17T00:21:15.577Z,13.30
2022-10-17T00:23:44.745Z,13.30
2022-10-17T00:26:12.574Z,13.30
2022-10-17T00:28:42.597Z,13.30
2022-10-17T00:31:11.789Z,13.30
2022-10-17T00:33:39.979Z,13.20
2022-10-17T00:36:08.979Z,13.20
2022-10-17T00:38:38.874Z,13.10
2022-10-17T00:41:08.780Z,13.10
2022-10-17T00:43:54.552Z,13.10
2022-10-17T00:46:23.592Z,13.00
2022-10-17T00:48:53.591Z,13.00
2022-10-17T00:51:24.120Z,13.00
2022-10-17T00:53:52.412Z,13.00
2022-10-17T00:56:22.297Z,12.90
2022-10-17T00:58:50.276Z,13.00
2022-10-17T01:01:18.276Z,13.10
2022-10-17T01:03:46.219Z,13.20
2022-10-17T01:06:14.591Z,13.20
2022-10-17T01:08:42.530Z,13.20
2022-10-17T01:11:20.075Z,13.20
2022-10-17T01:13:54.162Z,13.30
2022-10-17T01:16:26.512Z,13.30
2022-10-17T01:19:00.528Z,13.30
2022-10-17T01:21:34.165Z,13.30
2022-10-17T01:24:23.067Z,13.20
2022-10-17T01:26:59.997Z,13.10
2022-10-17T01:29:34.715Z,13.00
2022-10-17T01:32:13.194Z,12.90
2022-10-17T01:34:45.647Z,12.80
2022-10-17T01:37:17.884Z,12.60
2022-10-17T01:39:47.976Z,12.60
2022-10-17T01:42:18.523Z,12.70
2022-10-17T01:44:49.402Z,12.70
2022-10-17T01:47:21.302Z,12.70
2022-10-17T01:49:50.804Z,12.70
2022-10-17T01:52:20.741Z,12.60
2022-10-17T01:54:50.065Z,12.60
2022-10-17T01:57:20.872Z,12.60
2022-10-17T01:59:50.715Z,12.50
2022-10-17T02:02:20.470Z,12.50
2022-10-17T02:04:49.534Z,12.50
2022-10-17T02:07:17.517Z,12.50
2022-10-17T02:09:45.465Z,12.50
2022-10-17T02:12:22.329Z,12.50
2022-10-17T02:15:00.468Z,12.40
2022-10-17T02:17:36.628Z,12.30
2022-10-17T02:20:09.754Z,12.20
2022-10-17T02:22:40.844Z,12.20
2022-10-17T02:25:11.985Z,12.30
2022-10-17T02:27:44.860Z,12.40
2022-10-17T02:30:13.631Z,12.40
2022-10-17T02:32:48.026Z,12.40
2022-10-17T02:35:22.447Z,12.40
2022-10-17T02:37:52.041Z,12.40
2022-10-17T02:40:22.976Z,12.50
2022-10-17T02:42:53.686Z,12.50
2022-10-17T02:45:22.063Z,12.50
2022-10-17T02:47:55.676Z,12.60
2022-10-17T02:50:24.876Z,12.60
2022-10-17T02:52:56.586Z,12.60
2022-10-17T02:55:28.859Z,12.50
2022-10-17T02:58:00.186Z,12.50
2022-10-17T03:00:28.809Z,12.50
2022-10-17T03:02:58.514Z,12.50
2022-10-17T03:05:27.857Z,12.50
2022-10-17T03:07:55.982Z,12.50
2022-10-17T03:10:26.082Z,12.50
2022-10-17T03:12:53.985Z,12.50
2022-10-17T03:15:24.776Z,12.40
2022-10-17T03:17:52.673Z,12.40
2022-10-17T03:20:22.090Z,12.40
2022-10-17T03:22:50.761Z,12.40
2022-10-17T03:25:18.699Z,12.40
2022-10-17T03:27:49.284Z,12.40
2022-10-17T03:30:17.302Z,12.50
2022-10-17T03:32:45.145Z,12.50
2022-10-17T03:35:14.776Z,12.50
2022-10-17T03:37:46.591Z,12.60
2022-10-17T03:40:15.678Z,12.60
2022-10-17T03:42:45.603Z,12.60
2022-10-17T03:45:13.489Z,12.60
2022-10-17T03:47:44.290Z,12.70
2022-10-17T03:50:15.962Z,12.60
2022-10-17T03:52:49.172Z,12.60
2022-10-17T03:55:17.353Z,12.60
2022-10-17T03:57:45.744Z,12.60
2022-10-17T04:00:18.124Z,12.60
2022-10-17T04:02:54.108Z,12.60
2022-10-17T04:05:22.055Z,12.50
2022-10-17T04:07:53.648Z,12.50
2022-10-17T04:10:28.465Z,12.50
2022-10-17T04:12:58.713Z,12.50
2022-10-17T04:15:26.755Z,12.50
2022-10-17T04:17:54.897Z,12.50
2022-10-17T04:20:23.045Z,12.50
2022-10-17T04:22:50.992Z,12.50
2022-10-17T04:25:20.671Z,12.50
2022-10-17T04:27:49.995Z,12.50
2022-10-17T04:30:18.142Z,12.50
2022-10-17T04:32:46.688Z,12.50
2022-10-17T04:35:20.766Z,12.50
2022-10-17T04:37:54.342Z,12.50
2022-10-17T04:40:23.636Z,12.50
2022-10-17T04:42:53.996Z,12.50
2022-10-17T04:45:26.975Z,12.50
2022-10-17T04:48:01.098Z,12.50
2022-10-17T04:50:29.257Z,12.50
2022-10-17T04:53:15.786Z,12.40
2022-10-17T04:55:45.331Z,12.40
2022-10-17T04:58:13.323Z,12.40
2022-10-17T05:00:41.266Z,12.40
2022-10-17T05:03:16.094Z,12.40
2022-10-17T05:05:44.119Z,12.40
2022-10-17T05:08:13.379Z,12.40
2022-10-17T05:10:42.245Z,12.40
2022-10-17T05:13:11.830Z,12.40
2022-10-17T05:15:40.000Z,12.40
2022-10-17T05:18:08.272Z,12.40
2022-10-17T05:20:37.068Z,12.30
2022-10-17T05:23:05.002Z,12.40
2022-10-17T05:25:37.163Z,12.30
2022-10-17T05:28:05.130Z,12.30
2022-10-17T05:30:36.862Z,12.30
2022-10-17T05:33:07.555Z,12.30
2022-10-17T05:35:35.472Z,12.40
2022-10-17T05:38:03.465Z,12.40
2022-10-17T05:40:35.425Z,12.40
2022-10-17T05:43:03.934Z,12.40
2022-10-17T05:45:36.657Z,12.40
2022-10-17T05:48:05.119Z,12.40
2022-10-17T05:50:33.999Z,12.40
2022-10-17T05:53:12.862Z,12.40
2022-10-17T05:55:48.044Z,12.40
2022-10-17T05:58:22.277Z,12.50
2022-10-17T06:01:02.491Z,12.60
2022-10-17T06:03:30.440Z,12.60
2022-10-17T06:06:03.694Z,12.70
2022-10-17T06:08:32.069Z,12.70
2022-10-17T06:11:00.737Z,12.80
2022-10-17T06:13:29.004Z,12.80
2022-10-17T06:15:58.532Z,13.00
2022-10-17T06:18:27.780Z,13.00
2022-10-17T06:20:56.055Z,13.20
2022-10-17T06:23:24.674Z,13.30
2022-10-17T06:26:12.395Z,13.50
2022-10-17T06:28:41.136Z,13.80
2022-10-17T06:31:10.584Z,13.90
2022-10-17T06:33:39.973Z,14.10
2022-10-17T06:36:09.709Z,14.40
2022-10-17T06:38:37.662Z,14.50
2022-10-17T06:41:11.225Z,14.50
2022-10-17T06:43:39.241Z,14.60
2022-10-17T06:46:29.895Z,14.70
2022-10-17T06:49:05.697Z,14.90
2022-10-17T06:51:52.004Z,15.10
2022-10-17T06:54:24.218Z,15.40
2022-10-17T06:57:07.390Z,15.70
2022-10-17T06:59:46.754Z,15.70
2022-10-17T07:02:25.916Z,15.70
2022-10-17T07:04:56.574Z,15.40
2022-10-17T07:07:24.525Z,15.30
2022-10-17T07:09:53.956Z,15.40
2022-10-17T07:12:22.105Z,15.60
2022-10-17T07:14:51.040Z,16.00
2022-10-17T07:17:19.055Z,16.20
2022-10-17T07:19:49.194Z,16.30
2022-10-17T07:22:19.242Z,15.90
2022-10-17T07:27:29.880Z,16.10
2022-10-17T07:29:59.060Z,15.80
2022-10-17T07:32:38.943Z,15.60
2022-10-17T07:35:08.732Z,15.70
2022-10-17T07:37:38.275Z,15.70
2022-10-17T07:40:07.613Z,15.70
2022-10-17T07:45:11.348Z,15.80
2022-10-17T07:47:42.782Z,15.90
2022-10-17T07:50:11.713Z,15.80
2022-10-17T07:52:43.150Z,15.90
2022-10-17T07:55:11.160Z,16.00
2022-10-17T07:57:40.258Z,16.20
2022-10-17T08:00:08.922Z,16.20
2022-10-17T08:02:40.462Z,16.30
2022-10-17T08:05:08.722Z,16.40
2022-10-17T08:07:36.874Z,16.40
2022-10-17T08:12:41.883Z,16.40
2022-10-17T08:15:10.286Z,16.60
2022-10-17T08:17:39.074Z,16.70
2022-10-17T08:20:07.305Z,16.80
2022-10-17T08:22:35.170Z,16.90
2022-10-17T08:25:03.067Z,16.90
2022-10-17T08:27:33.600Z,17.10
2022-10-17T08:30:01.777Z,17.10
2022-10-17T08:32:30.439Z,17.20
2022-10-17T08:34:58.562Z,17.30
2022-10-17T08:37:26.582Z,17.40
2022-10-17T08:39:54.538Z,17.40
2022-10-17T08:42:30.854Z,17.50
2022-10-17T08:45:03.429Z,17.60
2022-10-17T08:47:37.675Z,17.80
2022-10-17T08:50:07.405Z,17.90
2022-10-17T08:52:38.061Z,18.00
2022-10-17T08:55:11.007Z,18.00
2022-10-17T08:57:38.860Z,18.10
2022-10-17T09:00:14.048Z,18.30
2022-10-17T09:02:47.498Z,18.40
2022-10-17T09:05:39.307Z,18.50
2022-10-17T09:08:13.599Z,18.60
2022-10-17T09:10:47.287Z,18.70
2022-10-17T09:13:20.525Z,18.80
2022-10-17T09:16:02.810Z,19.00
2022-10-17T09:18:32.547Z,19.20
2022-10-17T09:21:02.446Z,19.30
2022-10-17T09:23:32.623Z,19.30
2022-10-17T09:26:03.125Z,19.30
2022-10-17T09:28:32.398Z,19.50
2022-10-17T09:31:02.916Z,19.70
2022-10-17T09:33:52.950Z,19.70
2022-10-17T09:36:23.602Z,19.90
2022-10-17T09:38:53.386Z,20.00
2022-10-17T09:44:21.774Z,20.20
2022-10-17T09:46:55.971Z,20.30
2022-10-17T09:49:26.763Z,20.20
2022-10-17T09:51:54.642Z,20.40
2022-10-17T09:54:23.726Z,20.40
2022-10-17T09:56:58.753Z,20.40
2022-10-17T09:59:31.534Z,20.40
2022-10-17T10:02:09.117Z,20.50
2022-10-17T10:04:47.084Z,20.70
2022-10-17T10:07:29.078Z,20.70
2022-10-17T10:09:57.963Z,20.90
2022-10-17T10:12:27.051Z,21.00
2022-10-17T10:14:55.508Z,21.10
2022-10-17T10:17:29.635Z,21.20
2022-10-17T10:19:57.532Z,21.30
2022-10-17T10:22:25.474Z,21.40
2022-10-17T10:25:08.150Z,21.60
2022-10-17T10:27:36.486Z,21.60
2022-10-17T10:30:05.337Z,21.60
2022-10-17T10:32:35.908Z,21.50
2022-10-17T10:35:06.610Z,21.40
2022-10-17T10:37:36.743Z,21.50
2022-10-17T10:40:05.640Z,21.70
2022-10-17T10:42:35.035Z,21.90
2022-10-17T10:45:09.452Z,22.10
2022-10-17T10:47:55.524Z,22.10
2022-10-17T10:50:28.968Z,22.30
2022-10-17T10:53:06.421Z,22.50
2022-10-17T10:55:37.841Z,22.60
2022-10-17T10:58:10.945Z,22.60
2022-10-17T11:00:39.170Z,22.40
2022-10-17T11:03:12.832Z,22.30
2022-10-17T11:05:43.318Z,22.40
2022-10-17T11:08:16.028Z,22.50
2022-10-17T11:10:46.563Z,22.50
2022-10-17T11:13:16.363Z,22.60
2022-10-17T11:15:47.237Z,22.80
2022-10-17T11:18:23.032Z,23.00
2022-10-17T11:20:52.806Z,22.80
2022-10-17T11:23:24.839Z,22.90
2022-10-17T11:25:53.825Z,22.90
2022-10-17T11:28:22.740Z,23.00
2022-10-17T11:30:52.796Z,23.10
2022-10-17T11:33:28.697Z,23.20
2022-10-17T11:35:58.999Z,23.40
2022-10-17T11:38:30.874Z,23.40
2022-10-17T11:40:59.913Z,23.30
2022-10-17T11:43:29.796Z,23.30
2022-10-17T11:46:00.616Z,23.30
2022-10-17T11:48:35.224Z,23.30
2022-10-17T11:54:00.051Z,23.40
2022-10-17T11:56:38.018Z,23.40
2022-10-17T11:59:17.775Z,23.40
2022-10-17T12:01:47.950Z,23.40
2022-10-17T12:04:25.792Z,23.50
2022-10-17T12:07:09.232Z,23.40
2022-10-17T12:09:41.811Z,23.40
2022-10-17T12:12:09.769Z,23.60
2022-10-17T12:14:39.678Z,23.60
2022-10-17T12:17:23.435Z,23.70
2022-10-17T12:19:52.642Z,23.70
2022-10-17T12:22:25.992Z,23.80
2022-10-17T12:24:55.833Z,24.10
2022-10-17T12:27:33.293Z,24.00
2022-10-17T12:30:01.658Z,24.00
2022-10-17T12:32:36.767Z,24.00
2022-10-17T12:35:21.686Z,24.00
2022-10-17T12:38:02.989Z,23.80
2022-10-17T12:40:50.529Z,23.90
2022-10-17T12:43:33.689Z,24.00
2022-10-17T12:46:02.441Z,24.10
2022-10-17T12:48:49.113Z,24.10
2022-10-17T12:51:36.013Z,23.90
2022-10-17T12:54:10.587Z,23.90
2022-10-17T12:56:42.747Z,23.90
2022-10-17T12:59:18.578Z,24.00
2022-10-17T13:01:48.001Z,23.90
2022-10-17T13:04:17.823Z,24.10
2022-10-17T13:06:48.299Z,24.10
2022-10-17T13:09:23.690Z,24.00
2022-10-17T13:11:52.139Z,23.90
2022-10-17T13:14:21.647Z,23.80
2022-10-17T13:16:54.895Z,23.90
2022-10-17T13:19:23.923Z,23.70
2022-10-17T13:21:59.861Z,23.70
2022-10-17T13:24:31.357Z,23.70
2022-10-17T13:26:59.522Z,23.70
2022-10-17T13:29:28.750Z,23.60
2022-10-17T13:31:57.375Z,23.60
2022-10-17T13:34:26.447Z,23.60
2022-10-17T13:36:56.341Z,23.60
2022-10-17T13:39:38.430Z,23.50
2022-10-17T13:42:19.133Z,23.60
2022-10-17T13:44:47.139Z,23.60
2022-10-17T13:47:21.897Z,23.50
2022-10-17T13:49:54.277Z,23.50
2022-10-17T13:52:26.513Z,23.50
2022-10-17T13:54:55.451Z,23.50
2022-10-17T13:57:25.208Z,23.50
2022-10-17T13:59:54.456Z,23.50
2022-10-17T14:02:23.635Z,23.50
2022-10-17T14:05:18.349Z,23.50
2022-10-17T14:08:11.410Z,23.50
2022-10-17T14:10:40.487Z,23.50
2022-10-17T14:13:09.388Z,23.60
2022-10-17T14:15:37.972Z,23.50
2022-10-17T14:18:08.312Z,23.40
2022-10-17T14:23:31.873Z,23.40
2022-10-17T14:26:07.520Z,23.40
2022-10-17T14:28:35.944Z,23.40
2022-10-17T14:31:11.653Z,23.40
2022-10-17T14:33:42.624Z,23.50
2022-10-17T14:36:11.940Z,23.40
2022-10-17T14:38:45.568Z,23.40
2022-10-17T14:41:41.302Z,23.40
2022-10-17T14:44:06.200Z,23.40
2022-10-17T14:46:35.360Z,23.20
2022-10-17T14:49:05.427Z,23.30
2022-10-17T14:51:44.703Z,23.20
2022-10-17T14:54:25.873Z,23.00
2022-10-17T14:56:54.985Z,22.90
2022-10-17T14:59:52.064Z,22.80
2022-10-17T15:02:13.113Z,22.70
2022-10-17T15:04:40.988Z,22.60
2022-10-17T15:07:11.176Z,22.60
2022-10-17T15:09:40.383Z,22.50
2022-10-17T15:12:08.641Z,22.40
2022-10-17T15:14:36.471Z,22.50
2022-10-17T15:17:04.417Z,22.40
2022-10-17T15:19:32.238Z,22.40
2022-10-17T15:22:00.133Z,22.30
2022-10-17T15:24:28.183Z,22.30
2022-10-17T15:26:57.430Z,22.30
2022-10-17T15:29:25.721Z,22.20
2022-10-17T15:31:53.573Z,22.10
2022-10-17T15:34:21.436Z,22.00
2022-10-17T15:36:50.163Z,22.00
2022-10-17T15:39:18.000Z,22.00
2022-10-17T15:41:47.960Z,22.00
2022-10-17T15:44:17.329Z,21.90
2022-10-17T15:46:45.245Z,21.80
2022-10-17T15:49:14.416Z,21.70
2022-10-17T15:51:42.402Z,21.80
2022-10-17T15:54:10.300Z,21.80
2022-10-17T15:56:39.504Z,21.60
2022-10-17T15:59:08.478Z,21.60
2022-10-17T16:01:40.314Z,21.50
2022-10-17T16:04:12.613Z,21.60
2022-10-17T16:06:40.510Z,21.60
2022-10-17T16:09:08.371Z,21.50
2022-10-17T16:11:36.741Z,21.50
2022-10-17T16:14:06.607Z,21.50
2022-10-17T16:16:34.859Z,21.30
2022-10-17T16:19:04.759Z,21.10
2022-10-17T16:21:34.880Z,21.20
2022-10-17T16:24:03.097Z,21.00
2022-10-17T16:26:30.983Z,20.90
2022-10-17T16:29:02.779Z,20.80
2022-10-17T16:31:32.181Z,20.80
2022-10-17T16:34:00.823Z,20.80
2022-10-17T16:36:32.440Z,20.60
2022-10-17T16:39:00.274Z,20.50
2022-10-17T16:41:30.260Z,20.50
2022-10-17T16:43:58.829Z,20.60
2022-10-17T16:46:27.377Z,20.50
2022-10-17T16:48:55.365Z,20.40
2022-10-17T16:51:23.560Z,20.40
2022-10-17T16:53:54.408Z,20.30
2022-10-17T16:56:23.076Z,20.30
2022-10-17T16:58:51.361Z,20.30
2022-10-17T17:01:20.755Z,20.00
2022-10-17T17:03:48.670Z,20.00
2022-10-17T17:06:17.269Z,19.90
2022-10-17T17:08:45.182Z,19.80
2022-10-17T17:11:15.935Z,19.70
2022-10-17T17:13:43.916Z,19.70
2022-10-17T17:16:12.960Z,19.70
2022-10-17T17:18:41.142Z,20.00
2022-10-17T17:21:09.772Z,20.10
2022-10-17T17:23:39.000Z,20.00
2022-10-17T17:26:07.929Z,19.90
2022-10-17T17:28:37.412Z,19.90
2022-10-17T17:31:07.623Z,19.90
2022-10-17T17:33:35.696Z,19.90
2022-10-17T17:36:06.534Z,19.70
2022-10-17T17:38:36.543Z,19.50
2022-10-17T17:41:05.121Z,19.30
2022-10-17T17:43:36.481Z,19.10
2022-10-17T17:46:05.745Z,19.10
2022-10-17T17:48:33.756Z,19.00
2022-10-17T17:51:04.215Z,18.80
2022-10-17T17:53:32.101Z,18.80
2022-10-17T17:56:03.342Z,18.90
2022-10-17T17:58:31.268Z,18.90
2022-10-17T18:00:59.181Z,18.80
2022-10-17T18:03:28.815Z,18.80
2022-10-17T18:05:56.734Z,18.70
2022-10-17T18:08:24.600Z,18.50
2022-10-17T18:10:54.499Z,18.40
2022-10-17T18:13:22.692Z,18.30
2022-10-17T18:15:51.879Z,18.10
2022-10-17T18:18:19.809Z,18.10
2022-10-17T18:20:49.066Z,18.00
2022-10-17T18:23:17.837Z,18.00
2022-10-17T18:25:53.830Z,18.00
2022-10-17T18:28:21.901Z,17.90
2022-10-17T18:30:49.995Z,17.80
2022-10-17T18:33:18.198Z,17.90
2022-10-17T18:35:46.352Z,17.90
2022-10-17T18:38:15.620Z,17.80
2022-10-17T18:40:46.084Z,17.80
2022-10-17T18:43:17.169Z,17.80
2022-10-17T18:45:45.295Z,17.70
2022-10-17T18:48:13.994Z,17.70
2022-10-17T18:50:43.961Z,17.60
2022-10-17T18:53:12.213Z,17.60
2022-10-17T18:55:41.673Z,17.50
2022-10-17T18:58:09.584Z,17.40
2022-10-17T19:00:37.858Z,17.40
2022-10-17T19:03:08.419Z,17.50
2022-10-17T19:05:38.967Z,17.70
2022-10-17T19:08:09.354Z,17.80
2022-10-17T19:10:37.675Z,17.80
2022-10-17T19:13:06.985Z,17.80
2022-10-17T19:15:34.821Z,17.80
2022-10-17T19:18:02.909Z,17.90
2022-10-17T19:20:30.997Z,17.70
2022-10-17T19:22:58.843Z,17.80
2022-10-17T19:25:26.751Z,17.90
2022-10-17T19:27:54.608Z,17.80
2022-10-17T19:30:23.806Z,17.80
2022-10-17T19:32:51.688Z,18.00
2022-10-17T19:35:19.508Z,18.00
2022-10-17T19:37:47.412Z,18.00
2022-10-17T19:40:15.497Z,18.00
2022-10-17T19:42:43.464Z,18.10
2022-10-17T19:45:11.416Z,18.10
2022-10-17T19:47:40.712Z,18.10
2022-10-17T19:50:08.891Z,17.90
2022-10-17T19:52:36.722Z,18.00
2022-10-17T19:55:04.696Z,18.00
2022-10-17T19:57:32.747Z,18.10
2022-10-17T20:00:00.577Z,18.10
2022-10-17T20:02:40.899Z,18.20
2022-10-17T20:05:21.654Z,18.10
2022-10-17T20:07:51.472Z,18.00
2022-10-17T20:10:19.584Z,18.00
2022-10-17T20:12:47.562Z,17.90
2022-10-17T20:15:15.456Z,17.80
2022-10-17T20:17:44.709Z,17.70
2022-10-17T20:20:12.656Z,17.60
2022-10-17T20:22:41.059Z,17.40
2022-10-17T20:25:10.995Z,17.30
2022-10-17T20:27:38.845Z,17.20
2022-10-17T20:30:07.283Z,17.00
2022-10-17T20:32:39.646Z,17.00
2022-10-17T20:35:09.518Z,16.90
2022-10-17T20:37:41.624Z,16.80
2022-10-17T20:40:33.606Z,16.70
2022-10-17T20:42:59.022Z,16.70
2022-10-17T20:45:37.661Z,16.60
2022-10-17T20:48:15.730Z,16.60
2022-10-17T20:50:45.290Z,16.50
2022-10-17T20:56:02.355Z,16.30
2022-10-17T20:58:30.272Z,16.30
2022-10-17T21:00:58.186Z,16.20
2022-10-17T21:03:26.612Z,16.20
2022-10-17T21:05:55.885Z,16.20
2022-10-17T21:08:23.692Z,16.40
2022-10-17T21:10:51.599Z,16.30
2022-10-17T21:13:19.456Z,16.30
2022-10-17T21:15:47.246Z,16.30
2022-10-17T21:18:15.069Z,16.30
2022-10-17T21:20:43.108Z,16.20
2022-10-17T21:23:12.340Z,16.20
2022-10-17T21:25:40.848Z,16.20
2022-10-17T21:28:08.762Z,16.10
2022-10-17T21:30:36.628Z,16.10
2022-10-17T21:33:04.504Z,16.00
2022-10-17T21:35:32.269Z,16.00
2022-10-17T21:38:00.084Z,16.10
2022-10-17T21:40:29.281Z,16.20
2022-10-17T21:42:57.145Z,16.10
2022-10-17T21:45:26.197Z,15.90
2022-10-17T21:48:12.361Z,15.90
2022-10-17T21:50:41.180Z,15.80
2022-10-17T21:53:09.017Z,15.70
2022-10-17T21:55:38.431Z,15.70
2022-10-17T21:58:06.304Z,15.60
2022-10-17T22:00:34.108Z,15.60
2022-10-17T22:03:02.101Z,15.60
2022-10-17T22:05:31.920Z,15.60
2022-10-17T22:07:59.714Z,15.50
2022-10-17T22:10:27.791Z,15.50
2022-10-17T22:12:56.990Z,15.50
2022-10-17T22:15:24.819Z,15.50
2022-10-17T22:17:52.610Z,15.40
2022-10-17T22:20:20.397Z,15.40
2022-10-17T22:22:48.219Z,15.50
2022-10-17T22:25:16.142Z,15.50
2022-10-17T22:27:44.142Z,15.50
2022-10-17T22:30:13.557Z,15.50
2022-10-17T22:32:41.430Z,15.50
2022-10-17T22:35:09.434Z,15.50
2022-10-17T22:37:37.368Z,15.50
2022-10-17T22:40:05.447Z,15.60
2022-10-17T22:42:34.534Z,15.60
2022-10-17T22:45:03.116Z,15.60
2022-10-17T22:47:33.077Z,15.60
2022-10-17T22:50:01.189Z,15.60
2022-10-17T22:52:29.319Z,15.60
2022-10-17T22:54:57.780Z,15.60
2022-10-17T22:57:25.564Z,15.70
2022-10-17T22:59:55.723Z,15.70
2022-10-17T23:02:23.618Z,15.70
2022-10-17T23:04:52.753Z,15.70
2022-10-17T23:07:20.594Z,15.70
2022-10-17T23:09:48.340Z,15.70
2022-10-17T23:12:16.173Z,15.70
2022-10-17T23:14:44.256Z,15.70
2022-10-17T23:17:12.328Z,15.70
2022-10-17T23:19:40.358Z,15.70
2022-10-17T23:22:09.964Z,15.80
2022-10-17T23:24:37.792Z,15.80
2022-10-17T23:27:05.644Z,15.80
2022-10-17T23:29:34.050Z,15.90
2022-10-17T23:32:02.319Z,15.90
2022-10-17T23:34:30.408Z,15.90
2022-10-17T23:36:58.488Z,16.00
2022-10-17T23:39:27.780Z,16.00
2022-10-17T23:41:56.160Z,16.00
2022-10-17T23:44:26.354Z,16.00
2022-10-17T23:46:54.240Z,16.00
2022-10-17T23:49:22.044Z,16.10
2022-10-17T23:51:49.900Z,16.10
2022-10-17T23:54:17.745Z,16.10
2022-10-17T23:56:47.012Z,16.20
2022-10-17T23:59:14.814Z,16.30
